x

Cape Elizabeth- 45nm Nw Of Aberdeen, Wa (46041) Wave Buoy

8:50am - Fri 2nd Dec 2016 All times are PST. -8 hours from GMT.

  • Sig Wave height 9.8ft
  • Swell Direction
  • Peak Period 12s
  • Average Period 7s
  • Wind
    27mph, 34mph gusts
  • Sea Temp 56°f
  • 空気 Temp 53°f
  • Sea Pressure 1021.7mb
  • Cape Elizabeth- 45nm Nw Of Aberdeen, Wa
  • Cape Elizabeth- 45nm Nw Of Aberdeen, Wa

More Historic Weather Station data

Upgrade to MSW Pro to gain access to the past 30 days of data for over 8000 Wavebouys and Weather Stations around the globe.

Join Pro

Comparision Forecast

View Surf forecast
   
Fri 12/02 8:50am 10ft 12s 7s 27 34 mph 1021.7mb 56f 53f
7:50am 10ft 12s 7s 25 29 mph 1022.1mb 56f 52f
6:50am 11ft 12s 7s 25 29 mph 1022.3mb 56f 52f
5:50am 10ft 12s 7s 25 29 mph 1022.7mb 56f 52f
4:50am 10ft 11s 7s 25 29 mph 1022.8mb 56f 52f
3:50am 10ft 11s 7s 25 29 mph 1023.7mb 56f 52f
2:50am 9ft 11s 7s 22 27 mph 1024.5mb 56f 52f
1:50am 9ft 11s 7s 22 25 mph 1024.8mb 56f 53f
12:50am 9ft 11s 7s 22 25 mph 1024.8mb 56f 53f
Thu 12/01 11:50pm 8ft 11s 7s 20 22 mph 1024.9mb 56f 53f
10:50pm 7ft 11s 7s 20 22 mph 1025mb 55f 53f
9:50pm 8ft 11s 7s 13 18 mph 1024.9mb 55f 53f
8:50pm 7.5ft 12s 7s 13 18 mph 1025mb 55f 52f
7:50pm 8ft 12s 8s 16 20 mph 1025.3mb 54f 52f
6:50pm 8ft 12s 8s 16 18 mph 1025.5mb 54f 51f
5:50pm 7.5ft 13s 8s 11 13 mph 1025.7mb 54f 50f
4:50pm 8.5ft 12s 8s 9 11 mph 1025.4mb 54f 52f
3:50pm 9.5ft 13s 8s 9 11 mph 1024.9mb 54f 52f
2:50pm 9.5ft 12s 8s 11 13 mph 1024.7mb 54f 51f
1:50pm 9ft 12s 8s 4 9 mph 1024.5mb 54f 49f
12:50pm 10.5ft 11s 9s 11 16 mph 1024.7mb 54f 50f
11:50am 11ft 11s 8s 4 9 mph 1024.9mb 54f 50f
9:50am 12.5ft 12s 9s 9 13 mph 1024.6mb 54f 50f
8:50am 13ft 13s 9s 18 22 mph 1024.2mb 55f 50f
7:50am 12ft 13s 9s 9 13 mph 1024mb 55f 50f
6:50am 13ft 13s 9s 11 13 mph 1023.7mb 55f 50f
5:50am 12.5ft 13s 9s 11 13 mph 1023.4mb 55f 50f
4:50am 13ft 14s 9s 16 20 mph 1023.1mb 55f 50f
3:50am 12.5ft 14s 9s 16 20 mph 1023.2mb 55f 50f
2:50am 12ft 14s 9s 20 25 mph 1023.3mb 55f 50f
1:50am 14ft 12s 9s 16 20 mph 1022.6mb 55f 50f
12:50am 13.5ft 14s 8s 18 25 mph 1021.9mb 55f 50f
Wed 11/30 11:50pm 13ft 13s 8s 20 25 mph 1022mb 55f 50f
10:50pm 15.5ft 13s 9s 22 29 mph 1021.6mb 55f 50f
9:50pm 17.5ft 13s 9s 20 25 mph 1021.4mb 55f 50f
8:50pm 16ft 12s 9s 25 31 mph 1021mb 55f 51f
7:50pm 20ft 14s 10s 25 34 mph 1021mb 55f 48f
6:50pm 20ft 15s 10s 25 29 mph 1020.3mb 55f 51f
5:50pm 17.5ft 12s 9s 25 29 mph 1020mb 56f 51f
4:50pm 17.5ft 12s 9s 20 27 mph 1019.6mb 56f 51f
3:50pm 17ft 12s 8s 22 29 mph 1019mb 56f 52f
2:50pm 18.5ft 13s 9s 27 31 mph 1018.2mb 56f 52f
1:50pm 18.5ft 13s 9s 29 34 mph 1017.5mb 56f 52f
12:50pm 17.5ft 13s 8s 29 36 mph 1016.9mb 56f 52f
11:50am 19.5ft 11s 9s 31 38 mph 1016.7mb 56f 52f
10:50am 16.5ft 13s 8s 31 38 mph 1016.3mb 56f 52f
9:50am 16ft 12s 8s 29 38 mph 1015.5mb 56f 52f
8:50am 16.5ft 12s 8s 29 36 mph 1014.4mb 56f 52f
7:50am 15ft 12s 8s 34 40 mph 1013.3mb 56f 51f
6:50am 15.5ft 11s 8s 29 36 mph 1012.5mb 56f 52f
5:50am 15ft 11s 8s 31 38 mph 1011.5mb 56f 51f
4:50am 15ft 11s 8s 29 36 mph 1010.9mb 56f 49f
3:50am 14ft 10s 7s 34 45 mph 1009.8mb 56f 51f
2:50am 13.5ft 9s 7s 29 34 mph 1009.6mb 56f 49f
1:50am 13ft 9s 7s 31 38 mph 1008.8mb 56f 51f
12:50am 11ft 9s 7s 29 36 mph 1008.2mb 56f 51f
Tue 11/29 11:50pm 11ft 8s 7s 29 34 mph 1007.5mb 56f 52f
10:50pm 10ft 8s 6s 18 29 mph 1006.9mb 56f 51f
9:50pm 10ft 7s 6s 34 43 mph 1007.2mb 56f 49f
8:50pm 9ft 7s 6s 31 38 mph 1008.2mb 56f 49f
7:50pm 8.5ft 14s 6s 34 40 mph 1009.1mb 56f 50f
6:50pm 8ft 14s 6s 31 36 mph 1010.1mb 55f 51f
5:50pm 8.5ft 13s 6s 29 36 mph 1011.6mb 55f 52f
4:50pm 9ft 14s 7s 29 36 mph 1013mb 55f 52f
3:50pm 10ft 15s 7s 27 34 mph 1014.2mb 55f 51f
2:50pm 11ft 15s 8s 27 31 mph 1014.8mb 54f 51f
1:50pm 11ft 14s 8s 25 29 mph 1016.5mb 54f 51f
12:50pm 10.5ft 13s 8s 22 29 mph 1017.3mb 53f 51f
11:50am 12ft 15s 9s 18 22 mph 1018.6mb 53f 52f
10:50am 13.5ft 15s 9s 16 25 mph 1019.8mb 53f 50f
9:50am 14ft 16s 10s 16 20 mph 1020.2mb 53f 50f
8:50am 14ft 16s 10s 13 20 mph 1020.4mb 53f 50f
7:50am 15.5ft 14s 10s 16 22 mph 1020mb 53f 50f
6:50am 15ft 16s 10s 4 9 mph 1020.3mb 53f 51f
5:50am 15.5ft 15s 10s 4 7 mph 1020.4mb 53f 51f
4:50am 18ft 15s 11s 7 9 mph 1020.6mb 53f 51f
3:50am 15ft 16s 10s 4 11 mph 1020.8mb 53f 51f
2:50am 16ft 16s 10s 7 9 mph 1020.7mb 53f 51f
1:50am 16.5ft 15s 10s 9 13 mph 1020.6mb 53f 51f
12:50am 16.5ft 17s 10s 9 13 mph 1020.2mb 53f 51f
Mon 11/28 11:50pm 15.5ft 16s 10s 11 16 mph 1019.9mb 54f 52f
10:50pm 16ft 16s 10s 13 20 mph 1020mb 54f 52f
9:50pm 16ft 16s 10s 16 20 mph 1019.8mb 56f 52f
8:50pm 17ft 17s 10s 18 25 mph 1019.1mb 56f 52f
7:50pm 17.5ft 17s 10s 18 25 mph 1018.8mb 56f 52f
6:50pm 18.5ft 17s 10s 22 29 mph 1018mb 56f 52f